createdAt,value
2022-08-08T00:00:50.625Z,99139.13
2022-08-08T00:02:31.020Z,99143.03
2022-08-08T00:05:12.815Z,99146.31
2022-08-08T00:08:04.958Z,99139.53
2022-08-08T00:10:52.738Z,99148.41
2022-08-08T00:14:17.004Z,99147.22
2022-08-08T00:16:55.668Z,99141.41
2022-08-08T00:19:41.099Z,99142.69
2022-08-08T00:22:24.821Z,99139.19
2022-08-08T00:25:08.523Z,99152.06
2022-08-08T00:27:42.189Z,99154.41
2022-08-08T00:30:15.829Z,99139.91
2022-08-08T00:32:53.374Z,99143.78
2022-08-08T00:35:41.704Z,99147.78
2022-08-08T00:38:44.463Z,99151.00
2022-08-08T00:42:31.651Z,99155.22
2022-08-08T00:45:33.365Z,99145.31
2022-08-08T00:48:59.013Z,99142.03
2022-08-08T00:52:04.129Z,99143.50
2022-08-08T00:55:01.607Z,99139.88
2022-08-08T00:58:12.658Z,99136.91
2022-08-08T01:01:02.354Z,99133.31
2022-08-08T01:04:04.874Z,99134.50
2022-08-08T01:06:47.571Z,99147.09
2022-08-08T01:09:41.396Z,99136.88
2022-08-08T01:12:47.339Z,99150.66
2022-08-08T01:15:54.893Z,99139.22
2022-08-08T01:19:52.087Z,99141.53
2022-08-08T01:23:04.682Z,99134.44
2022-08-08T01:26:27.104Z,99147.44
2022-08-08T01:29:23.891Z,99140.59
2022-08-08T01:32:21.181Z,99143.16
2022-08-08T01:35:11.225Z,99147.38
2022-08-08T01:38:07.669Z,99147.00
2022-08-08T01:41:16.294Z,99145.16
2022-08-08T01:44:20.075Z,99143.00
2022-08-08T01:48:11.582Z,99145.78
2022-08-08T01:50:24.817Z,99146.56
2022-08-08T01:55:16.550Z,99151.84
2022-08-08T01:56:51.540Z,99150.59
2022-08-08T02:00:03.540Z,99151.16
2022-08-08T02:03:07.550Z,99150.66
2022-08-08T02:06:32.631Z,99144.53
2022-08-08T02:10:01.787Z,99143.50
2022-08-08T02:12:32.236Z,99137.69
2022-08-08T02:15:16.025Z,99139.78
2022-08-08T02:18:10.718Z,99138.53
2022-08-08T02:21:17.870Z,99135.25
2022-08-08T02:23:55.772Z,99136.41
2022-08-08T02:26:37.490Z,99136.19
2022-08-08T02:30:00.815Z,99137.72
2022-08-08T02:33:01.918Z,99141.13
2022-08-08T02:36:04.841Z,99142.56
2022-08-08T02:39:01.130Z,99143.03
2022-08-08T02:42:03.741Z,99138.91
2022-08-08T02:44:58.695Z,99139.56
2022-08-08T02:47:58.959Z,99140.22
2022-08-08T02:51:29.958Z,99137.53
2022-08-08T02:54:44.624Z,99136.97
2022-08-08T02:57:40.361Z,99144.59
2022-08-08T03:00:38.918Z,99151.13
2022-08-08T03:05:04.548Z,99147.19
2022-08-08T03:07:19.717Z,99150.19
2022-08-08T03:10:32.477Z,99143.16
2022-08-08T03:15:56.571Z,99147.66
2022-08-08T03:16:57.904Z,99141.91
2022-08-08T03:19:27.902Z,99151.50
2022-08-08T03:21:59.658Z,99145.84
2022-08-08T03:24:26.594Z,99145.63
2022-08-08T03:27:35.836Z,99155.00
2022-08-08T03:30:19.039Z,99158.78
2022-08-08T03:33:07.907Z,99157.47
2022-08-08T03:35:52.518Z,99155.94
2022-08-08T03:38:55.863Z,99158.25
2022-08-08T03:41:32.208Z,99162.38
2022-08-08T03:43:59.670Z,99160.94
2022-08-08T03:46:32.667Z,99159.53
2022-08-08T03:49:56.269Z,99159.16
2022-08-08T03:51:54.084Z,99162.91
2022-08-08T03:54:51.814Z,99166.00
2022-08-08T03:58:35.760Z,99165.41
2022-08-08T04:00:11.277Z,99167.22
2022-08-08T04:02:47.630Z,99162.34
2022-08-08T04:05:22.683Z,99167.38
2022-08-08T04:07:54.397Z,99167.38
2022-08-08T04:10:21.490Z,99168.34
2022-08-08T04:12:49.878Z,99167.56
2022-08-08T04:15:16.867Z,99170.41
2022-08-08T04:17:57.964Z,99176.78
2022-08-08T04:20:28.713Z,99176.25
2022-08-08T04:22:58.202Z,99177.88
2022-08-08T04:25:30.055Z,99175.91
2022-08-08T04:28:35.462Z,99181.28
2022-08-08T04:30:48.084Z,99177.31
2022-08-08T04:33:15.707Z,99174.66
2022-08-08T04:35:51.066Z,99183.63
2022-08-08T04:38:21.925Z,99179.78
2022-08-08T04:40:53.581Z,99177.66
2022-08-08T04:43:22.607Z,99175.56
2022-08-08T04:45:59.402Z,99176.84
2022-08-08T04:48:25.970Z,99181.56
2022-08-08T04:50:53.091Z,99177.50
2022-08-08T04:54:27.412Z,99188.31
2022-08-08T04:56:07.291Z,99191.72
2022-08-08T04:58:34.443Z,99181.56
2022-08-08T05:01:09.035Z,99186.53
2022-08-08T05:04:10.767Z,99184.84
2022-08-08T05:06:25.550Z,99190.03
2022-08-08T05:08:54.779Z,99189.38
2022-08-08T05:11:24.231Z,99187.28
2022-08-08T05:13:58.605Z,99193.53
2022-08-08T05:16:51.606Z,99197.28
2022-08-08T05:20:12.535Z,99196.91
2022-08-08T05:22:02.850Z,99193.72
2022-08-08T05:24:30.861Z,99194.19
2022-08-08T05:26:58.513Z,99194.53
2022-08-08T05:29:27.029Z,99191.16
2022-08-08T05:32:03.173Z,99199.31
2022-08-08T05:34:46.687Z,99201.50
2022-08-08T05:37:39.484Z,99200.97
2022-08-08T05:40:11.959Z,99210.00
2022-08-08T05:42:45.380Z,99202.81
2022-08-08T05:45:25.070Z,99208.78
2022-08-08T05:48:01.456Z,99203.84
2022-08-08T05:50:33.758Z,99206.03
2022-08-08T05:53:53.611Z,99211.78
2022-08-08T05:56:10.655Z,99214.81
2022-08-08T05:58:57.897Z,99210.66
2022-08-08T06:01:56.142Z,99206.13
2022-08-08T06:04:24.424Z,99211.59
2022-08-08T06:07:00.554Z,99209.06
2022-08-08T06:09:41.845Z,99221.19
2022-08-08T06:12:30.380Z,99224.66
2022-08-08T06:15:03.179Z,99218.22
2022-08-08T06:17:50.935Z,99225.78
2022-08-08T06:20:23.126Z,99223.84
2022-08-08T06:22:53.820Z,99223.06
2022-08-08T06:26:34.754Z,99229.41
2022-08-08T06:28:29.351Z,99229.22
2022-08-08T06:31:01.730Z,99227.22
2022-08-08T06:34:25.459Z,99225.88
2022-08-08T06:36:53.331Z,99232.66
2022-08-08T06:39:21.862Z,99221.78
2022-08-08T06:41:59.274Z,99227.69
2022-08-08T06:44:30.178Z,99235.38
2022-08-08T06:46:59.028Z,99233.78
2022-08-08T06:49:56.211Z,99239.25
2022-08-08T06:52:16.099Z,99235.50
2022-08-08T06:54:44.353Z,99238.41
2022-08-08T06:57:15.871Z,99232.38
2022-08-08T07:00:12.124Z,99239.47
2022-08-08T07:02:33.251Z,99244.97
2022-08-08T07:05:20.511Z,99243.22
2022-08-08T07:08:03.880Z,99239.91
2022-08-08T07:10:47.570Z,99243.66
2022-08-08T07:13:18.214Z,99241.59
2022-08-08T07:16:05.875Z,99243.72
2022-08-08T07:18:51.978Z,99244.78
2022-08-08T07:21:31.131Z,99241.16
2022-08-08T07:24:10.170Z,99241.72
2022-08-08T07:26:41.119Z,99252.97
2022-08-08T07:29:11.676Z,99251.19
2022-08-08T07:31:56.089Z,99246.69
2022-08-08T07:34:31.875Z,99249.78
2022-08-08T07:37:01.609Z,99250.66
2022-08-08T07:39:45.709Z,99249.91
2022-08-08T07:42:32.769Z,99250.09
2022-08-08T07:44:59.634Z,99247.78
2022-08-08T07:47:38.555Z,99251.31
2022-08-08T07:50:07.009Z,99247.97
2022-08-08T07:52:36.171Z,99250.31
2022-08-08T07:55:13.926Z,99247.78
2022-08-08T07:58:00.747Z,99243.88
2022-08-08T08:00:43.234Z,99242.47
2022-08-08T08:03:23.622Z,99249.09
2022-08-08T08:05:51.800Z,99253.56
2022-08-08T08:08:27.652Z,99253.44
2022-08-08T08:10:59.600Z,99259.59
2022-08-08T08:14:06.302Z,99246.56
2022-08-08T08:16:33.031Z,99254.00
2022-08-08T08:19:12.839Z,99248.25
2022-08-08T08:21:57.044Z,99240.75
2022-08-08T08:24:30.935Z,99248.88
2022-08-08T08:27:02.705Z,99249.31
2022-08-08T08:29:29.985Z,99251.94
2022-08-08T08:31:58.363Z,99244.75
2022-08-08T08:34:32.585Z,99253.00
2022-08-08T08:37:03.341Z,99243.25
2022-08-08T08:39:59.868Z,99242.38
2022-08-08T08:42:31.408Z,99248.81
2022-08-08T08:45:21.737Z,99245.84
2022-08-08T08:47:58.158Z,99249.06
2022-08-08T08:50:31.723Z,99251.28
2022-08-08T08:53:27.873Z,99253.28
2022-08-08T08:56:01.256Z,99257.56
2022-08-08T08:58:35.552Z,99258.66
2022-08-08T09:01:10.164Z,99254.94
2022-08-08T09:03:46.656Z,99246.53
2022-08-08T09:06:33.518Z,99255.19
2022-08-08T09:09:36.212Z,99250.78
2022-08-08T09:12:11.004Z,99237.78
2022-08-08T09:14:42.295Z,99243.03
2022-08-08T09:17:15.839Z,99239.22
2022-08-08T09:21:58.687Z,99242.56
2022-08-08T09:22:35.794Z,99241.94
2022-08-08T09:25:04.930Z,99243.38
2022-08-08T09:27:50.834Z,99233.34
2022-08-08T09:30:20.059Z,99232.78
2022-08-08T09:33:13.147Z,99229.66
2022-08-08T09:35:49.141Z,99229.88
2022-08-08T09:38:35.786Z,99228.00
2022-08-08T09:42:14.412Z,99230.75
2022-08-08T09:44:46.914Z,99225.31
2022-08-08T09:48:03.949Z,99225.38
2022-08-08T09:50:15.020Z,99220.03
2022-08-08T09:53:05.776Z,99220.59
2022-08-08T09:56:04.936Z,99218.44
2022-08-08T09:58:41.577Z,99222.78
2022-08-08T10:01:14.482Z,99221.81
2022-08-08T10:03:55.730Z,99229.19
2022-08-08T10:06:29.372Z,99225.53
2022-08-08T10:08:56.659Z,99221.88
2022-08-08T10:12:26.967Z,99222.88
2022-08-08T10:14:28.415Z,99221.34
2022-08-08T10:16:58.987Z,99216.47
2022-08-08T10:19:38.514Z,99218.16
2022-08-08T10:22:25.752Z,99211.81
2022-08-08T10:25:02.143Z,99220.84
2022-08-08T10:27:34.141Z,99210.44
2022-08-08T10:30:04.078Z,99209.06
2022-08-08T10:32:34.404Z,99207.03
2022-08-08T10:36:09.537Z,99203.13
2022-08-08T10:38:16.282Z,99206.00
2022-08-08T10:40:45.731Z,99200.28
2022-08-08T10:43:13.087Z,99201.47
2022-08-08T10:45:55.745Z,99198.13
2022-08-08T10:48:37.166Z,99193.56
2022-08-08T10:51:13.960Z,99199.25
2022-08-08T10:53:57.492Z,99193.81
2022-08-08T10:56:32.440Z,99194.81
2022-08-08T10:59:09.377Z,99190.56
2022-08-08T11:01:41.659Z,99201.78
2022-08-08T11:04:10.777Z,99199.41
2022-08-08T11:06:41.903Z,99196.66
2022-08-08T11:09:20.134Z,99194.28
2022-08-08T11:12:05.023Z,99192.75
2022-08-08T11:14:53.117Z,99190.25
2022-08-08T11:17:59.445Z,99184.00
2022-08-08T11:20:14.332Z,99183.69
2022-08-08T11:22:54.470Z,99184.38
2022-08-08T11:25:52.639Z,99183.56
2022-08-08T11:28:18.783Z,99180.91
2022-08-08T11:30:50.034Z,99174.25
2022-08-08T11:33:23.511Z,99175.69
2022-08-08T11:36:10.044Z,99173.97
2022-08-08T11:38:53.937Z,99179.13
2022-08-08T11:41:24.441Z,99175.53
2022-08-08T11:43:53.935Z,99169.59
2022-08-08T11:46:28.156Z,99171.09
2022-08-08T11:48:59.007Z,99164.09
2022-08-08T11:51:38.209Z,99167.94
2022-08-08T11:54:13.723Z,99162.16
2022-08-08T11:56:57.755Z,99161.81
2022-08-08T11:59:58.492Z,99155.50
2022-08-08T12:02:33.492Z,99162.03
2022-08-08T12:05:12.493Z,99153.38
2022-08-08T12:07:56.612Z,99155.59
2022-08-08T12:10:30.340Z,99156.72
2022-08-08T12:13:02.391Z,99153.84
2022-08-08T12:15:42.178Z,99151.22
2022-08-08T12:18:24.697Z,99148.72
2022-08-08T12:20:55.174Z,99141.03
2022-08-08T12:23:43.288Z,99146.63
2022-08-08T12:26:28.567Z,99141.69
2022-08-08T12:29:03.545Z,99144.81
2022-08-08T12:31:39.459Z,99142.22
2022-08-08T12:34:20.009Z,99145.13
2022-08-08T12:36:49.404Z,99143.81
2022-08-08T12:40:00.233Z,99131.16
2022-08-08T12:42:21.151Z,99132.47
2022-08-08T12:44:50.393Z,99137.03
2022-08-08T12:47:57.977Z,99140.53
2022-08-08T12:50:14.970Z,99145.28
2022-08-08T12:52:42.454Z,99128.63
2022-08-08T12:55:14.315Z,99127.53
2022-08-08T12:57:56.682Z,99123.00
2022-08-08T13:00:34.250Z,99135.97
2022-08-08T13:03:07.293Z,99133.63
2022-08-08T13:06:03.613Z,99124.13
2022-08-08T13:08:21.834Z,99131.31
2022-08-08T13:10:56.143Z,99133.16
2022-08-08T13:13:37.061Z,99133.69
2022-08-08T13:16:25.974Z,99115.81
2022-08-08T13:19:06.617Z,99127.44
2022-08-08T13:21:55.653Z,99132.09
2022-08-08T13:24:42.549Z,99117.19
2022-08-08T13:27:16.390Z,99115.69
2022-08-08T13:30:02.561Z,99121.56
2022-08-08T13:32:39.709Z,99116.28
2022-08-08T13:35:11.781Z,99112.09
2022-08-08T13:38:06.038Z,99109.84
2022-08-08T13:40:35.556Z,99113.84
2022-08-08T13:43:03.659Z,99117.25
2022-08-08T13:45:31.263Z,99116.47
2022-08-08T13:48:03.730Z,99111.16
2022-08-08T13:50:49.443Z,99109.03
2022-08-08T13:53:34.180Z,99104.06
2022-08-08T13:56:11.249Z,99101.38
2022-08-08T13:58:56.541Z,99112.16
2022-08-08T14:01:33.116Z,99111.00
2022-08-08T14:04:22.940Z,99109.59
2022-08-08T14:06:58.173Z,99106.50
2022-08-08T14:10:05.047Z,99114.09
2022-08-08T14:12:28.453Z,99100.41
2022-08-08T14:14:55.619Z,99112.56
2022-08-08T14:17:57.817Z,99101.75
2022-08-08T14:20:15.007Z,99096.81
2022-08-08T14:23:21.516Z,99107.94
2022-08-08T14:26:10.646Z,99110.63
2022-08-08T14:28:39.951Z,99108.84
2022-08-08T14:31:11.368Z,99100.47
2022-08-08T14:33:57.570Z,99118.22
2022-08-08T14:36:36.659Z,99109.00
2022-08-08T14:39:11.780Z,99119.44
2022-08-08T14:41:54.185Z,99114.25
2022-08-08T14:44:35.024Z,99111.56
2022-08-08T14:47:02.584Z,99108.66
2022-08-08T14:50:05.876Z,99111.56
2022-08-08T14:53:14.270Z,99117.06
2022-08-08T14:55:43.085Z,99107.28
2022-08-08T14:58:11.763Z,99117.63
2022-08-08T15:00:43.366Z,99109.88
2022-08-08T15:03:14.440Z,99105.78
2022-08-08T15:05:52.404Z,99112.31
2022-08-08T15:08:34.314Z,99105.63
2022-08-08T15:11:04.332Z,99102.19
2022-08-08T15:13:40.239Z,99108.63
2022-08-08T15:16:18.104Z,99107.41
2022-08-08T15:18:51.280Z,99104.69
2022-08-08T15:21:20.688Z,99114.75
2022-08-08T15:23:51.008Z,99102.41
2022-08-08T15:26:20.094Z,99101.72
2022-08-08T15:28:53.075Z,99112.22
2022-08-08T15:31:55.833Z,99104.56
2022-08-08T15:34:29.714Z,99099.03
2022-08-08T15:36:55.814Z,99105.66
2022-08-08T15:39:22.403Z,99113.56
2022-08-08T15:41:49.411Z,99109.50
2022-08-08T15:44:17.825Z,99100.31
2022-08-08T15:46:45.650Z,99091.09
2022-08-08T15:49:17.561Z,99103.00
2022-08-08T15:51:54.478Z,99101.78
2022-08-08T15:54:38.500Z,99097.63
2022-08-08T15:57:09.065Z,99102.69
2022-08-08T16:00:18.309Z,99099.84
2022-08-08T16:02:31.228Z,99106.22
2022-08-08T16:05:00.665Z,99106.13
2022-08-08T16:07:39.601Z,99109.34
2022-08-08T16:13:14.403Z,99114.31
2022-08-08T16:13:27.756Z,99114.50
2022-08-08T16:15:57.593Z,99101.13
2022-08-08T16:18:27.668Z,99100.91
2022-08-08T16:21:00.019Z,99107.09
2022-08-08T16:23:31.816Z,99107.19
2022-08-08T16:26:03.978Z,99091.53
2022-08-08T16:28:34.970Z,99094.16
2022-08-08T16:31:03.191Z,99110.59
2022-08-08T16:33:38.960Z,99103.66
2022-08-08T16:36:09.715Z,99096.28
2022-08-08T16:38:44.403Z,99117.03
2022-08-08T16:41:20.306Z,99113.88
2022-08-08T16:43:50.665Z,99127.97
2022-08-08T16:46:43.738Z,99110.69
2022-08-08T16:49:09.351Z,99102.72
2022-08-08T16:55:00.890Z,99109.13
2022-08-08T16:55:03.428Z,99109.59
2022-08-08T16:58:11.773Z,99117.19
2022-08-08T17:00:08.578Z,99108.72
2022-08-08T17:02:38.754Z,99117.09
2022-08-08T17:05:10.197Z,99105.34
2022-08-08T17:07:40.904Z,99114.16
2022-08-08T17:10:10.204Z,99112.28
2022-08-08T17:12:38.775Z,99107.75
2022-08-08T17:15:17.610Z,99107.81
2022-08-08T17:18:02.702Z,99116.94
2022-08-08T17:20:32.564Z,99109.97
2022-08-08T17:23:16.364Z,99111.47
2022-08-08T17:25:52.627Z,99122.09
2022-08-08T17:28:34.216Z,99120.81
2022-08-08T17:31:11.821Z,99129.91
2022-08-08T17:34:53.906Z,99131.22
2022-08-08T17:36:55.543Z,99141.88
2022-08-08T17:40:03.886Z,99137.53
2022-08-08T17:42:12.798Z,99134.69
2022-08-08T17:44:39.734Z,99138.84
2022-08-08T17:47:09.662Z,99146.66
2022-08-08T17:49:42.597Z,99155.19
2022-08-08T17:52:10.304Z,99149.38
2022-08-08T17:54:37.467Z,99161.19
2022-08-08T17:57:05.777Z,99157.19
2022-08-08T17:59:45.383Z,99159.53
2022-08-08T18:02:16.434Z,99163.97
2022-08-08T18:04:51.068Z,99161.59
2022-08-08T18:08:15.622Z,99168.06
2022-08-08T18:10:07.297Z,99172.28
2022-08-08T18:12:34.258Z,99171.28
2022-08-08T18:15:01.671Z,99179.50
2022-08-08T18:18:05.485Z,99180.03
2022-08-08T18:20:43.910Z,99175.38
2022-08-08T18:23:01.166Z,99178.81
2022-08-08T18:25:28.585Z,99179.31
2022-08-08T18:28:04.585Z,99179.31
2022-08-08T18:30:32.940Z,99189.91
2022-08-08T18:32:59.470Z,99190.94
2022-08-08T18:35:34.169Z,99189.22
2022-08-08T18:38:17.163Z,99188.22
2022-08-08T18:40:46.386Z,99198.66
2022-08-08T18:43:14.942Z,99200.72
2022-08-08T18:46:08.562Z,99201.72
2022-08-08T18:48:31.488Z,99211.44
2022-08-08T18:50:59.145Z,99211.41
2022-08-08T18:53:51.617Z,99211.22
2022-08-08T18:56:28.985Z,99220.47
2022-08-08T18:58:55.524Z,99219.44
2022-08-08T19:02:24.931Z,99221.41
2022-08-08T19:04:10.812Z,99226.09
2022-08-08T19:06:39.234Z,99226.22
2022-08-08T19:09:13.198Z,99232.53
2022-08-08T19:11:46.313Z,99237.50
2022-08-08T19:14:20.739Z,99235.63
2022-08-08T19:16:48.302Z,99238.78
2022-08-08T19:19:17.666Z,99245.66
2022-08-08T19:21:48.756Z,99248.28
2022-08-08T19:24:34.144Z,99256.63
2022-08-08T19:27:04.038Z,99257.66
2022-08-08T19:29:30.905Z,99263.00
2022-08-08T19:31:57.788Z,99265.00
2022-08-08T19:34:35.915Z,99263.63
2022-08-08T19:37:05.500Z,99269.94
2022-08-08T19:39:35.592Z,99278.94
2022-08-08T19:42:04.627Z,99274.25
2022-08-08T19:44:42.758Z,99286.38
2022-08-08T19:47:12.487Z,99293.22
2022-08-08T19:49:39.534Z,99289.75
2022-08-08T19:52:11.853Z,99298.97
2022-08-08T19:54:40.048Z,99298.44
2022-08-08T19:57:09.871Z,99298.19
2022-08-08T19:59:41.954Z,99293.91
2022-08-08T20:02:10.637Z,99290.41
2022-08-08T20:04:38.397Z,99298.22
2022-08-08T20:08:30.760Z,99292.41
2022-08-08T20:09:57.147Z,99295.88
2022-08-08T20:12:32.172Z,99290.72
2022-08-08T20:15:14.127Z,99301.44
2022-08-08T20:17:45.202Z,99300.25
2022-08-08T20:20:19.284Z,99293.53
2022-08-08T20:22:54.314Z,99299.16
2022-08-08T20:25:24.564Z,99308.22
2022-08-08T20:27:54.116Z,99303.44
2022-08-08T20:30:52.357Z,99308.66
2022-08-08T20:33:19.854Z,99310.06
2022-08-08T20:35:58.810Z,99313.31
2022-08-08T20:38:32.212Z,99314.13
2022-08-08T20:41:00.761Z,99311.59
2022-08-08T20:43:43.887Z,99309.75
2022-08-08T20:46:14.698Z,99312.25
2022-08-08T20:48:41.283Z,99314.50
2022-08-08T20:51:08.685Z,99319.53
2022-08-08T20:53:58.307Z,99319.41
2022-08-08T20:56:35.803Z,99318.41
2022-08-08T20:59:05.841Z,99323.03
2022-08-08T21:02:05.553Z,99322.19
2022-08-08T21:04:20.815Z,99323.41
2022-08-08T21:06:52.410Z,99311.66
2022-08-08T21:09:21.571Z,99319.97
2022-08-08T21:11:52.114Z,99322.31
2022-08-08T21:14:30.160Z,99319.47
2022-08-08T21:17:01.273Z,99324.13
2022-08-08T21:19:44.007Z,99323.25
2022-08-08T21:22:11.491Z,99317.22
2022-08-08T21:24:39.430Z,99318.56
2022-08-08T21:27:15.378Z,99321.53
2022-08-08T21:30:04.492Z,99323.72
2022-08-08T21:32:38.953Z,99321.03
2022-08-08T21:36:16.326Z,99333.19
2022-08-08T21:37:54.778Z,99320.66
2022-08-08T21:40:31.222Z,99327.66
2022-08-08T21:42:58.377Z,99325.97
2022-08-08T21:48:01.706Z,99325.50
2022-08-08T21:48:16.349Z,99334.53
2022-08-08T21:50:46.272Z,99338.88
2022-08-08T21:54:22.983Z,99334.47
2022-08-08T21:56:19.983Z,99344.53
2022-08-08T21:58:52.800Z,99345.47
2022-08-08T22:01:38.969Z,99343.66
2022-08-08T22:04:11.258Z,99341.88
2022-08-08T22:06:40.540Z,99341.75
2022-08-08T22:09:09.628Z,99347.22
2022-08-08T22:12:02.367Z,99342.28
2022-08-08T22:14:26.372Z,99349.22
2022-08-08T22:16:54.225Z,99350.69
2022-08-08T22:19:23.911Z,99348.03
2022-08-08T22:21:52.995Z,99351.56
2022-08-08T22:24:23.856Z,99354.09
2022-08-08T22:27:01.388Z,99357.50
2022-08-08T22:29:59.552Z,99344.44
2022-08-08T22:32:18.183Z,99351.97
2022-08-08T22:34:50.560Z,99346.19
2022-08-08T22:37:49.759Z,99351.00
2022-08-08T22:40:16.578Z,99357.03
2022-08-08T22:42:47.067Z,99346.16
2022-08-08T22:45:15.542Z,99357.66
2022-08-08T22:47:46.825Z,99353.03
2022-08-08T22:50:27.141Z,99354.84
2022-08-08T22:54:31.899Z,99361.38
2022-08-08T22:55:59.042Z,99358.94
2022-08-08T22:58:34.773Z,99359.47
2022-08-08T23:02:01.053Z,99361.16
2022-08-08T23:03:57.737Z,99362.84
2022-08-08T23:06:27.564Z,99363.00
2022-08-08T23:08:59.075Z,99363.00
2022-08-08T23:11:57.925Z,99352.34
2022-08-08T23:14:21.149Z,99355.72
2022-08-08T23:16:54.516Z,99348.22
2022-08-08T23:19:27.937Z,99357.16
2022-08-08T23:22:04.710Z,99356.81
2022-08-08T23:24:36.549Z,99357.31
2022-08-08T23:27:09.699Z,99352.31
2022-08-08T23:29:37.186Z,99354.38
2022-08-08T23:32:05.729Z,99357.16
2022-08-08T23:34:37.748Z,99359.09
2022-08-08T23:37:04.899Z,99356.56
2022-08-08T23:39:42.243Z,99347.25
2022-08-08T23:42:15.915Z,99346.41
2022-08-08T23:44:42.880Z,99344.72
2022-08-08T23:49:01.309Z,99353.28
2022-08-08T23:50:03.087Z,99345.91
2022-08-08T23:52:33.325Z,99353.44
2022-08-08T23:55:14.267Z,99349.66
2022-08-08T23:57:52.371Z,99348.13
